Time;durP1;ratioP1;P1;durP2;ratioP2;P2;SDS_P1;SDS_P2;PMS_P1;PMS_P2;Temp;Humidity;BMP_temperature;BMP_pressure;BME280_temperature;BME280_humidity;BME280_pressure;Samples;Min_cycle;Max_cycle;Signal;HPM_P1;HPM_P2
2021/05/04 00:00:49;;;;;;;5.47;3.00;;;8.00;62.40;;;;;;5093063;28;20020;-87
2021/05/04 00:03:15;;;;;;;6.63;3.50;;;8.00;62.40;;;;;;5093098;28;20016;-87
2021/05/04 00:05:41;;;;;;;4.90;3.30;;;8.00;62.50;;;;;;5094379;28;20373;-87
2021/05/04 00:08:07;;;;;;;4.57;3.22;;;7.90;62.60;;;;;;5093688;28;20024;-87
2021/05/04 00:10:33;;;;;;;5.13;3.22;;;7.90;62.60;;;;;;5092560;28;20114;-85
2021/05/04 00:12:58;;;;;;;5.03;3.40;;;7.90;62.70;;;;;;5092513;28;20318;-86
2021/05/04 00:15:24;;;;;;;6.88;3.72;;;7.90;62.70;;;;;;5092749;28;20106;-86
2021/05/04 00:17:50;;;;;;;6.90;3.58;;;7.80;62.80;;;;;;5092450;28;20046;-87
2021/05/04 00:20:17;;;;;;;5.72;3.65;;;7.80;62.80;;;;;;5075014;28;20025;-85
2021/05/04 00:22:43;;;;;;;8.27;4.30;;;7.80;62.90;;;;;;5075149;28;20044;-86
2021/05/04 00:25:09;;;;;;;5.47;3.50;;;7.70;63.00;;;;;;5074486;28;20059;-86
2021/05/04 00:27:35;;;;;;;6.15;3.40;;;7.70;63.20;;;;;;5088468;28;20055;-85
2021/05/04 00:30:01;;;;;;;7.25;3.65;;;7.70;63.30;;;;;;5092734;28;20040;-83
2021/05/04 00:32:26;;;;;;;6.70;3.50;;;7.70;63.40;;;;;;5093176;28;20016;-83
2021/05/04 00:34:52;;;;;;;5.15;3.13;;;7.70;63.40;;;;;;5094115;28;20073;-86
2021/05/04 00:37:18;;;;;;;6.28;3.47;;;7.60;63.40;;;;;;5079714;28;20023;-87
2021/05/04 00:39:44;;;;;;;6.75;3.40;;;7.60;63.50;;;;;;5092791;28;20028;-86
2021/05/04 00:42:09;;;;;;;5.25;3.30;;;7.60;63.60;;;;;;5079644;28;20023;-86
2021/05/04 00:44:35;;;;;;;6.63;3.30;;;7.60;63.60;;;;;;5091910;28;20024;-86
2021/05/04 00:47:01;;;;;;;4.78;3.10;;;7.60;63.60;;;;;;5093579;28;20027;-86
2021/05/04 00:49:27;;;;;;;5.75;3.10;;;7.50;63.70;;;;;;5109303;28;20039;-86
2021/05/04 00:51:56;;;;;;;6.13;3.50;;;7.50;63.70;;;;;;5092429;28;20019;-87
2021/05/04 00:54:26;;;;;;;4.40;3.10;;;7.50;63.90;;;;;;5077851;28;20024;-87
2021/05/04 00:56:54;;;;;;;4.38;3.05;;;7.50;63.90;;;;;;5092441;28;20126;-87
2021/05/04 00:59:23;;;;;;;5.20;2.90;;;7.50;63.90;;;;;;5092297;28;20028;-88
2021/05/04 01:01:53;;;;;;;6.60;2.90;;;7.50;64.00;;;;;;5093269;28;20028;-87
2021/05/04 01:04:20;;;;;;;6.85;3.25;;;7.50;64.00;;;;;;5092667;28;20051;-87
2021/05/04 01:06:46;;;;;;;4.55;2.88;;;7.50;64.00;;;;;;5089583;28;20028;-87
2021/05/04 01:09:16;;;;;;;6.75;2.72;;;7.50;64.00;;;;;;5092868;28;20028;-86
2021/05/04 01:11:43;;;;;;;4.13;3.00;;;7.50;64.10;;;;;;5093279;28;20042;-81
2021/05/04 01:14:09;;;;;;;4.65;3.47;;;7.40;64.10;;;;;;5091935;28;20124;-82
2021/05/04 01:16:35;;;;;;;5.63;3.33;;;7.40;64.20;;;;;;5087344;28;20499;-83
2021/05/04 01:19:01;;;;;;;5.10;3.20;;;7.40;64.30;;;;;;5091457;28;20028;-82
2021/05/04 01:21:27;;;;;;;7.03;3.85;;;7.40;64.40;;;;;;5082921;28;20024;-82
2021/05/04 01:23:52;;;;;;;6.45;3.30;;;7.30;64.50;;;;;;5091769;28;20024;-83
2021/05/04 01:26:18;;;;;;;5.35;3.60;;;7.20;64.60;;;;;;5092807;28;20438;-82
2021/05/04 01:28:44;;;;;;;5.45;3.10;;;7.20;64.70;;;;;;5076374;28;20032;-82
2021/05/04 01:31:10;;;;;;;6.57;3.47;;;7.20;64.80;;;;;;5091568;28;20030;-82
2021/05/04 01:33:36;;;;;;;6.00;3.60;;;7.20;64.90;;;;;;5091250;28;20450;-83
2021/05/04 01:36:02;;;;;;;5.70;3.83;;;7.20;65.10;;;;;;5092781;28;20110;-82
2021/05/04 01:38:27;;;;;;;6.30;3.80;;;7.10;65.10;;;;;;5080488;28;20190;-82
2021/05/04 01:40:53;;;;;;;5.88;3.63;;;7.10;65.20;;;;;;5091537;28;20026;-83
2021/05/04 01:43:19;;;;;;;8.70;3.92;;;7.10;65.50;;;;;;5091266;28;20020;-82
2021/05/04 01:45:44;;;;;;;8.40;4.38;;;7.10;65.60;;;;;;5091481;28;20359;-83
2021/05/04 01:48:10;;;;;;;7.65;4.43;;;7.10;65.80;;;;;;5091462;28;20023;-82
2021/05/04 01:50:36;;;;;;;7.93;4.53;;;7.10;66.00;;;;;;5089606;28;20031;-82
2021/05/04 01:53:02;;;;;;;8.18;5.10;;;7.10;66.10;;;;;;5091062;28;20049;-83
2021/05/04 01:55:28;;;;;;;9.57;5.32;;;7.00;66.20;;;;;;5084653;28;20090;-82
2021/05/04 01:57:54;;;;;;;8.88;5.90;;;7.00;66.30;;;;;;5091897;28;20020;-82
2021/05/04 02:00:20;;;;;;;11.35;6.22;;;7.00;66.50;;;;;;5084217;28;20459;-82
2021/05/04 02:02:45;;;;;;;11.13;6.32;;;6.90;66.60;;;;;;5091436;28;20036;-83
2021/05/04 02:05:12;;;;;;;10.57;5.93;;;6.80;66.80;;;;;;5091311;28;20129;-83
2021/05/04 02:07:38;;;;;;;8.68;5.75;;;6.80;67.00;;;;;;5082347;28;20028;-82
2021/05/04 02:10:04;;;;;;;7.50;4.63;;;6.70;67.30;;;;;;5091357;28;20032;-82
2021/05/04 02:12:30;;;;;;;6.25;4.50;;;6.60;67.50;;;;;;5090223;28;20088;-81
2021/05/04 02:14:56;;;;;;;8.30;5.72;;;6.60;67.80;;;;;;5090824;28;20111;-83
2021/05/04 02:17:22;;;;;;;8.73;4.55;;;6.50;67.90;;;;;;5092164;28;20039;-83
2021/05/04 02:19:47;;;;;;;7.13;4.55;;;6.50;68.20;;;;;;5090584;28;20057;-83
2021/05/04 02:22:13;;;;;;;7.93;5.25;;;6.50;68.40;;;;;;5090700;28;20107;-82
2021/05/04 02:24:39;;;;;;;9.95;6.22;;;6.40;68.50;;;;;;5090456;28;20054;-82
2021/05/04 02:27:05;;;;;;;10.85;5.82;;;6.40;68.70;;;;;;5087254;28;20048;-82
2021/05/04 02:29:31;;;;;;;9.73;6.20;;;6.50;68.80;;;;;;5084997;28;20040;-82
2021/05/04 02:31:56;;;;;;;10.25;7.13;;;6.50;68.90;;;;;;5088763;28;20103;-82
2021/05/04 02:34:22;;;;;;;11.63;7.78;;;6.50;69.00;;;;;;5081551;28;20044;-82
2021/05/04 02:36:48;;;;;;;10.18;7.25;;;6.50;69.10;;;;;;5085646;28;20013;-83
2021/05/04 02:39:13;;;;;;;10.80;6.78;;;6.60;69.20;;;;;;5090307;28;20028;-82
2021/05/04 02:41:39;;;;;;;10.60;6.10;;;6.60;69.10;;;;;;5080765;28;20420;-83
2021/05/04 02:44:05;;;;;;;10.68;6.53;;;6.70;69.20;;;;;;5079596;28;20074;-83
2021/05/04 02:46:32;;;;;;;9.25;6.10;;;6.80;69.30;;;;;;5081768;28;20020;-82
2021/05/04 02:48:58;;;;;;;11.13;6.22;;;6.90;69.70;;;;;;5076105;28;20049;-84
2021/05/04 02:51:24;;;;;;;10.43;5.78;;;7.10;69.70;;;;;;5085764;28;20347;-84
2021/05/04 02:53:51;;;;;;;6.85;4.55;;;7.30;69.60;;;;;;5094219;28;20023;-83
2021/05/04 02:56:16;;;;;;;8.07;5.35;;;7.50;69.20;;;;;;5091309;28;20413;-83
2021/05/04 02:58:42;;;;;;;7.13;4.68;;;7.70;68.90;;;;;;5093800;28;20016;-83
2021/05/04 03:01:08;;;;;;;7.18;4.50;;;7.90;68.40;;;;;;5094931;28;20020;-84
2021/05/04 03:03:35;;;;;;;6.90;4.65;;;8.20;68.20;;;;;;5095051;28;20020;-86
2021/05/04 03:06:04;;;;;;;7.63;4.63;;;8.40;67.80;;;;;;5092912;28;20466;-84
2021/05/04 03:08:30;;;;;;;7.40;4.50;;;8.70;67.20;;;;;;5094203;28;20020;-83
2021/05/04 03:10:56;;;;;;;6.22;4.05;;;8.90;66.60;;;;;;5094761;28;20476;-76
2021/05/04 03:13:27;;;;;;;6.07;3.80;;;9.10;66.10;;;;;;5083720;28;20381;-82
2021/05/04 03:15:53;;;;;;;5.95;3.70;;;9.40;65.60;;;;;;5094363;28;20075;-81
2021/05/04 03:18:19;;;;;;;5.43;3.70;;;9.60;64.80;;;;;;5095250;28;20023;-77
2021/05/04 03:20:46;;;;;;;5.30;3.55;;;9.80;64.30;;;;;;5095909;28;20028;-86
2021/05/04 03:23:12;;;;;;;5.82;3.70;;;10.00;63.70;;;;;;5096005;28;20020;-87
2021/05/04 03:25:40;;;;;;;8.30;3.70;;;10.20;63.60;;;;;;5094674;28;20027;-79
2021/05/04 03:28:05;;;;;;;4.85;3.58;;;10.40;63.00;;;;;;5080290;28;20359;-82
2021/05/04 03:30:31;;;;;;;4.93;3.33;;;10.60;62.60;;;;;;5094805;28;20134;-82
2021/05/04 03:32:57;;;;;;;6.22;3.08;;;10.90;62.30;;;;;;5094353;28;20024;-79
2021/05/04 03:35:22;;;;;;;6.30;3.65;;;11.10;61.60;;;;;;5094982;28;20020;-81
2021/05/04 03:37:48;;;;;;;6.82;4.38;;;11.40;61.10;;;;;;5095948;28;20469;-82
2021/05/04 03:40:15;;;;;;;9.15;3.75;;;11.60;60.00;;;;;;5095203;28;20032;-82
2021/05/04 03:42:42;;;;;;;5.85;3.60;;;11.80;59.50;;;;;;5093594;28;20469;-82
2021/05/04 03:45:11;;;;;;;7.75;3.63;;;12.00;59.30;;;;;;5095019;28;20028;-82
2021/05/04 03:47:41;;;;;;;6.40;3.90;;;12.40;59.40;;;;;;5094747;28;20019;-82
2021/05/04 03:50:10;;;;;;;8.02;3.72;;;12.70;59.00;;;;;;5093431;28;20543;-84
2021/05/04 03:52:36;;;;;;;6.30;3.78;;;13.10;58.30;;;;;;5094769;28;20020;-84
2021/05/04 03:55:02;;;;;;;8.07;3.72;;;13.40;57.70;;;;;;5092221;28;20023;-83
2021/05/04 03:57:28;;;;;;;6.38;3.95;;;13.80;57.20;;;;;;5092638;28;20016;-83
2021/05/04 03:59:54;;;;;;;6.20;3.67;;;14.10;56.40;;;;;;5093835;28;20023;-84
2021/05/04 04:02:20;;;;;;;5.40;3.35;;;14.30;55.30;;;;;;5092214;28;20020;-83
2021/05/04 04:04:45;;;;;;;7.30;3.58;;;14.50;54.20;;;;;;5093779;28;20051;-83
2021/05/04 04:07:11;;;;;;;6.28;3.10;;;14.60;53.60;;;;;;5099546;28;20046;-83
2021/05/04 04:09:37;;;;;;;4.05;2.78;;;14.70;53.70;;;;;;5094781;28;20474;-85
2021/05/04 04:12:03;;;;;;;4.78;3.25;;;14.90;53.50;;;;;;5094163;28;20362;-85
2021/05/04 04:14:29;;;;;;;5.18;3.58;;;15.20;53.00;;;;;;5094786;28;20051;-84
2021/05/04 04:16:54;;;;;;;5.20;3.40;;;15.50;52.40;;;;;;5084030;28;20012;-84
2021/05/04 04:19:20;;;;;;;5.15;3.38;;;15.60;52.10;;;;;;5093487;28;20125;-84
2021/05/04 04:21:48;;;;;;;5.07;3.17;;;15.90;51.60;;;;;;5093628;28;20080;-85
2021/05/04 04:24:14;;;;;;;5.10;3.28;;;16.10;51.30;;;;;;5093691;28;20042;-83
2021/05/04 04:26:40;;;;;;;5.97;3.20;;;16.30;50.40;;;;;;5081555;28;20046;-85
2021/05/04 04:29:05;;;;;;;4.95;3.03;;;16.50;49.50;;;;;;5082770;28;20146;-83
2021/05/04 04:31:31;;;;;;;4.50;3.05;;;16.80;49.20;;;;;;5078816;28;20048;-82
2021/05/04 04:33:57;;;;;;;5.28;3.42;;;17.00;48.70;;;;;;5094687;28;20016;-83
2021/05/04 04:36:22;;;;;;;6.22;3.58;;;17.20;48.00;;;;;;5095156;28;20019;-84
2021/05/04 04:38:48;;;;;;;5.10;3.17;;;17.40;47.60;;;;;;5078749;28;20020;-84
2021/05/04 04:41:14;;;;;;;6.78;3.40;;;17.60;47.40;;;;;;5082768;28;20013;-85
2021/05/04 04:43:39;;;;;;;6.30;3.50;;;17.90;47.30;;;;;;5089300;28;20016;-84
2021/05/04 04:46:05;;;;;;;5.75;3.38;;;18.20;46.90;;;;;;5094781;28;20103;-85
2021/05/04 04:48:31;;;;;;;4.63;3.17;;;18.40;46.50;;;;;;5095520;28;20016;-82
2021/05/04 04:50:56;;;;;;;8.52;3.25;;;18.60;45.90;;;;;;5087449;28;20024;-84
2021/05/04 04:53:22;;;;;;;5.97;3.55;;;18.80;45.20;;;;;;5086492;28;20024;-84
2021/05/04 04:55:48;;;;;;;6.78;4.20;;;19.00;44.80;;;;;;5078615;28;20020;-84
2021/05/04 04:58:13;;;;;;;7.82;4.90;;;19.20;44.20;;;;;;5094332;28;20016;-84
2021/05/04 05:00:39;;;;;;;5.82;3.35;;;19.30;44.00;;;;;;5093764;28;20032;-83
2021/05/04 05:03:05;;;;;;;6.82;3.42;;;19.50;43.70;;;;;;5094202;28;20012;-84
2021/05/04 05:05:30;;;;;;;6.07;3.28;;;19.70;43.10;;;;;;5094361;28;20051;-85
2021/05/04 05:07:56;;;;;;;5.10;3.33;;;19.80;42.50;;;;;;5086786;28;20021;-86
2021/05/04 05:10:22;;;;;;;6.10;3.80;;;19.80;42.00;;;;;;5085804;28;20081;-87
2021/05/04 05:12:47;;;;;;;6.15;3.67;;;19.70;42.00;;;;;;5093786;28;20012;-86
2021/05/04 05:15:14;;;;;;;6.05;3.40;;;19.70;42.30;;;;;;5082190;28;20021;-86
2021/05/04 05:17:40;;;;;;;4.95;3.20;;;19.70;42.40;;;;;;5088854;28;20105;-85
2021/05/04 05:20:07;;;;;;;5.20;3.47;;;19.90;42.80;;;;;;5092653;28;20016;-85
2021/05/04 05:22:34;;;;;;;5.72;3.47;;;20.20;42.50;;;;;;5093565;28;20044;-87
2021/05/04 05:25:00;;;;;;;5.75;3.33;;;20.40;42.00;;;;;;5092003;28;20497;-87
2021/05/04 05:27:28;;;;;;;4.40;3.28;;;20.80;41.80;;;;;;5092208;28;20089;-87
2021/05/04 05:29:53;;;;;;;6.43;3.40;;;21.00;40.90;;;;;;5093010;28;20362;-86
2021/05/04 05:32:19;;;;;;;6.97;3.65;;;21.10;40.60;;;;;;5091849;28;20105;-81
2021/05/04 05:34:45;;;;;;;5.28;3.25;;;21.20;40.50;;;;;;5090917;28;20042;-82
2021/05/04 05:37:11;;;;;;;4.50;3.17;;;21.40;40.30;;;;;;5093078;28;20090;-83
2021/05/04 05:39:42;;;;;;;5.38;3.50;;;21.60;40.10;;;;;;5093107;28;20073;-84
2021/05/04 05:42:08;;;;;;;6.25;3.22;;;21.90;39.70;;;;;;5077394;28;20461;-84
2021/05/04 05:44:33;;;;;;;6.22;4.00;;;21.90;39.40;;;;;;5092519;28;20024;-83
2021/05/04 05:46:59;;;;;;;5.97;3.65;;;22.00;38.80;;;;;;5091528;28;20425;-83
2021/05/04 05:49:25;;;;;;;5.55;3.40;;;21.80;38.80;;;;;;5091815;28;20079;-84
2021/05/04 05:51:50;;;;;;;5.00;3.50;;;21.90;39.10;;;;;;5081912;28;20020;-84
2021/05/04 05:54:16;;;;;;;5.93;3.47;;;22.20;38.80;;;;;;5092715;28;20026;-83
2021/05/04 05:56:42;;;;;;;5.40;3.40;;;22.30;38.10;;;;;;5091457;28;20024;-83
2021/05/04 05:59:07;;;;;;;7.82;3.60;;;22.40;37.90;;;;;;5074524;28;20070;-83
2021/05/04 06:01:33;;;;;;;5.60;3.50;;;22.30;38.10;;;;;;5074597;28;20028;-83
2021/05/04 06:03:59;;;;;;;7.60;3.40;;;22.50;38.50;;;;;;5092080;28;20023;-83
2021/05/04 06:06:24;;;;;;;7.10;3.40;;;22.90;38.00;;;;;;5088498;28;20032;-81
2021/05/04 06:08:50;;;;;;;4.20;3.00;;;23.20;37.50;;;;;;5088928;28;20013;-83
2021/05/04 06:11:16;;;;;;;5.20;3.00;;;23.20;36.80;;;;;;5090653;28;20020;-84
2021/05/04 06:13:43;;;;;;;8.15;3.25;;;23.20;37.00;;;;;;5090884;28;20036;-82
2021/05/04 06:16:09;;;;;;;5.38;3.38;;;23.30;36.80;;;;;;5076005;28;20059;-81
2021/05/04 06:18:35;;;;;;;5.68;3.55;;;23.40;36.70;;;;;;5091207;28;20043;-82
2021/05/04 06:21:00;;;;;;;4.35;3.08;;;23.50;36.60;;;;;;5087631;28;20024;-81
2021/05/04 06:23:26;;;;;;;5.03;3.08;;;23.70;36.50;;;;;;5092971;28;20031;-83
2021/05/04 06:25:52;;;;;;;5.88;3.50;;;24.20;36.70;;;;;;5081725;28;20019;-82
2021/05/04 06:28:18;;;;;;;6.78;3.10;;;24.50;35.80;;;;;;5082271;28;20472;-84
2021/05/04 06:30:44;;;;;;;6.47;3.42;;;24.70;35.10;;;;;;5087446;28;20041;-83
2021/05/04 06:33:12;;;;;;;4.45;2.83;;;24.90;34.60;;;;;;5089181;28;20027;-83
2021/05/04 06:35:41;;;;;;;5.47;3.20;;;24.90;34.50;;;;;;5096767;28;20106;-83
2021/05/04 06:38:11;;;;;;;4.60;3.03;;;25.10;34.60;;;;;;5096852;28;20024;-83
2021/05/04 06:40:38;;;;;;;4.57;3.13;;;25.30;34.20;;;;;;5089026;28;20463;-82
2021/05/04 06:43:03;;;;;;;4.82;2.90;;;25.30;33.60;;;;;;5088534;28;20466;-83
2021/05/04 06:45:29;;;;;;;4.50;3.05;;;25.40;33.40;;;;;;5081200;28;20016;-82
2021/05/04 06:47:55;;;;;;;3.90;2.97;;;25.50;33.10;;;;;;5085903;28;20458;-80
2021/05/04 06:50:21;;;;;;;4.20;3.00;;;25.30;33.30;;;;;;5093083;28;20031;-79
2021/05/04 06:52:46;;;;;;;5.97;3.00;;;25.30;33.30;;;;;;5086879;28;20074;-80
2021/05/04 06:55:13;;;;;;;5.95;3.17;;;25.60;33.20;;;;;;5093809;28;20111;-79
2021/05/04 06:57:39;;;;;;;6.25;3.78;;;25.70;32.80;;;;;;5080776;28;20464;-80
2021/05/04 07:00:09;;;;;;;6.32;3.33;;;25.40;32.70;;;;;;5092645;28;20085;-79
2021/05/04 07:02:35;;;;;;;4.07;2.88;;;24.90;32.80;;;;;;5080940;28;20081;-80
2021/05/04 07:05:02;;;;;;;6.50;2.90;;;24.80;33.40;;;;;;5093373;28;20041;-80
2021/05/04 07:07:28;;;;;;;4.43;3.03;;;24.80;32.80;;;;;;5090850;28;20025;-80
2021/05/04 07:09:53;;;;;;;5.47;3.25;;;25.10;33.20;;;;;;5087107;28;20077;-79
2021/05/04 07:12:19;;;;;;;3.88;2.60;;;25.50;32.80;;;;;;5090296;28;20060;-79
2021/05/04 07:14:45;;;;;;;6.03;2.70;;;26.00;32.30;;;;;;5091263;28;20148;-80
2021/05/04 07:17:10;;;;;;;4.38;3.05;;;25.90;31.70;;;;;;5086659;28;20020;-81
2021/05/04 07:19:39;;;;;;;5.50;3.30;;;25.20;31.20;;;;;;5095211;28;20020;-81
2021/05/04 07:22:10;;;;;;;4.93;3.00;;;24.00;32.10;;;;;;5087355;28;20028;-81
2021/05/04 07:24:39;;;;;;;4.63;3.03;;;22.90;32.90;;;;;;5092253;28;20012;-80
2021/05/04 07:27:08;;;;;;;5.97;3.58;;;22.10;33.70;;;;;;5086640;28;20059;-80
2021/05/04 07:29:35;;;;;;;4.68;3.30;;;21.30;34.20;;;;;;5093489;28;20055;-80
2021/05/04 07:32:03;;;;;;;4.40;2.58;;;21.10;35.60;;;;;;5090632;28;20115;-84
2021/05/04 07:34:29;;;;;;;4.55;2.70;;;21.40;35.50;;;;;;5084324;28;20042;-80
2021/05/04 07:36:54;;;;;;;5.03;2.42;;;21.70;34.70;;;;;;5091590;28;20357;-80
2021/05/04 07:39:20;;;;;;;5.32;2.88;;;21.50;34.30;;;;;;5093240;28;20028;-79
2021/05/04 07:41:46;;;;;;;6.05;2.70;;;21.40;34.60;;;;;;5089785;28;20026;-81
2021/05/04 07:44:12;;;;;;;3.75;2.40;;;21.80;34.90;;;;;;5094022;28;20446;-81
2021/05/04 07:46:37;;;;;;;7.18;2.40;;;22.30;34.10;;;;;;5093013;28;20028;-81
2021/05/04 07:49:06;;;;;;;6.10;3.15;;;22.80;34.50;;;;;;5092222;28;20467;-81
2021/05/04 07:51:31;;;;;;;3.72;2.55;;;23.30;33.90;;;;;;5094455;28;20028;-82
2021/05/04 07:53:57;;;;;;;4.03;2.65;;;23.90;34.00;;;;;;5087435;28;20082;-82
2021/05/04 07:56:23;;;;;;;4.20;2.47;;;24.20;33.10;;;;;;5091036;28;20408;-82
2021/05/04 07:58:49;;;;;;;4.05;2.28;;;24.00;32.60;;;;;;5087948;28;20020;-82
2021/05/04 08:01:14;;;;;;;5.00;2.70;;;23.90;32.20;;;;;;5092148;28;20039;-82
2021/05/04 08:03:40;;;;;;;4.70;2.70;;;23.10;32.00;;;;;;5086281;28;20022;-82
2021/05/04 08:06:06;;;;;;;4.38;2.63;;;22.10;32.40;;;;;;5093101;28;20028;-81
2021/05/04 08:08:32;;;;;;;6.85;2.50;;;21.30;33.60;;;;;;5082192;28;20025;-81
2021/05/04 08:10:57;;;;;;;4.80;2.70;;;21.40;34.20;;;;;;5079815;28;20424;-81
2021/05/04 08:13:23;;;;;;;3.58;2.22;;;21.50;33.80;;;;;;5081963;28;20048;-80
2021/05/04 08:15:51;;;;;;;4.75;2.53;;;21.30;33.60;;;;;;5080781;28;20078;-81
2021/05/04 08:18:17;;;;;;;4.97;2.70;;;20.80;33.70;;;;;;5093340;28;20042;-82
2021/05/04 08:20:49;;;;;;;6.07;3.10;;;20.50;34.60;;;;;;5089921;28;20059;-81
2021/05/04 08:23:16;;;;;;;3.97;2.92;;;20.40;35.70;;;;;;5092828;28;20116;-82
2021/05/04 08:25:42;;;;;;;4.95;2.95;;;20.20;35.40;;;;;;5092753;28;20023;-82
2021/05/04 08:28:08;;;;;;;4.07;2.60;;;19.90;35.90;;;;;;5085994;28;20024;-81
2021/05/04 08:30:34;;;;;;;7.10;2.80;;;19.90;36.10;;;;;;5087865;28;20480;-82
2021/05/04 08:32:59;;;;;;;4.07;2.85;;;19.80;36.00;;;;;;5077498;28;20455;-76
2021/05/04 08:35:26;;;;;;;4.63;3.10;;;19.60;36.10;;;;;;5081575;28;20031;-83
2021/05/04 08:37:54;;;;;;;5.03;2.90;;;19.20;36.40;;;;;;5090234;28;20538;-81
2021/05/04 08:40:19;;;;;;;3.88;2.90;;;18.70;36.70;;;;;;5081997;28;20209;-79
2021/05/04 08:42:46;;;;;;;5.53;2.90;;;18.20;36.80;;;;;;5081268;28;20911;-81
2021/05/04 08:45:13;;;;;;;6.03;2.83;;;17.80;38.20;;;;;;5092165;28;20020;-81
2021/05/04 08:47:40;;;;;;;6.57;3.30;;;17.50;38.20;;;;;;5094003;28;20020;-81
2021/05/04 08:50:06;;;;;;;5.75;3.30;;;17.30;38.90;;;;;;5088145;28;20126;-80
2021/05/04 08:52:32;;;;;;;4.63;2.97;;;17.10;39.40;;;;;;5091561;28;20069;-80
2021/05/04 08:54:58;;;;;;;5.10;2.97;;;16.80;39.50;;;;;;5090885;28;20020;-80
2021/05/04 08:57:23;;;;;;;5.93;3.13;;;16.60;40.10;;;;;;5091879;28;20470;-80
2021/05/04 08:59:49;;;;;;;4.55;2.80;;;16.50;40.70;;;;;;5090109;28;20059;-81
2021/05/04 09:02:19;;;;;;;5.00;2.92;;;16.60;41.00;;;;;;5086086;28;20523;-81
2021/05/04 09:04:54;;;;;;;4.78;2.78;;;16.60;40.90;;;;;;5090994;28;20821;-80
2021/05/04 09:07:28;;;;;;;5.95;3.20;;;16.70;40.80;;;;;;5088843;28;20020;-80
2021/05/04 09:13:12;;;;;;;5.18;2.85;;;17.00;41.20;;;;;;5082220;28;20166;-81
2021/05/04 09:21:25;;;;;;;5.30;2.63;;;17.00;39.50;;;;;;5085783;28;20054;-80
2021/05/04 09:23:51;;;;;;;5.43;3.30;;;16.70;39.70;;;;;;5082550;28;20032;-80
2021/05/04 09:26:22;;;;;;;4.53;3.08;;;16.50;40.20;;;;;;5089635;28;20426;-80
2021/05/04 09:28:52;;;;;;;6.30;3.17;;;16.60;40.80;;;;;;5074390;28;20036;-81
2021/05/04 09:31:38;;;;;;;4.90;2.40;;;17.40;40.90;;;;;;5087382;28;20024;-81
2021/05/04 09:34:22;;;;;;;5.20;2.42;;;18.90;40.20;;;;;;5081761;28;20020;-79
2021/05/04 09:36:51;;;;;;;4.65;2.30;;;19.70;37.90;;;;;;5092647;28;20083;-81
2021/05/04 09:39:25;;;;;;;3.40;2.10;;;19.80;37.10;;;;;;5091661;28;20050;-80
2021/05/04 09:41:53;;;;;;;6.03;2.45;;;19.60;36.60;;;;;;5080362;28;20450;-81
2021/05/04 09:44:41;;;;;;;4.95;2.25;;;19.30;36.40;;;;;;5087949;28;20032;-80
2021/05/04 09:47:09;;;;;;;5.00;2.45;;;19.10;36.10;;;;;;5085000;28;20024;-80
2021/05/04 09:49:39;;;;;;;7.95;2.30;;;19.20;36.40;;;;;;5089612;28;20103;-80
2021/05/04 09:52:32;;;;;;;4.53;2.20;;;19.60;36.60;;;;;;5085067;28;20012;-80
2021/05/04 09:55:14;;;;;;;4.95;1.98;;;19.90;36.50;;;;;;5082203;28;20110;-78
2021/05/04 09:57:43;;;;;;;3.08;2.00;;;20.00;36.60;;;;;;5089804;28;20358;-80
2021/05/04 10:00:17;;;;;;;3.15;2.00;;;20.60;36.70;;;;;;5085320;28;20017;-81
2021/05/04 10:02:44;;;;;;;3.30;2.00;;;21.40;36.40;;;;;;5085137;28;20126;-84
2021/05/04 10:05:13;;;;;;;5.30;2.22;;;22.10;34.70;;;;;;5086106;28;20020;-78
2021/05/04 10:07:40;;;;;;;6.07;1.73;;;22.10;33.80;;;;;;5089872;28;20031;-80
2021/05/04 10:10:11;;;;;;;7.75;2.10;;;21.90;33.20;;;;;;5092051;28;20369;-89
2021/05/04 10:12:38;;;;;;;5.13;2.13;;;21.40;33.20;;;;;;5090857;28;20475;-77
2021/05/04 10:15:08;;;;;;;4.38;2.20;;;20.90;34.10;;;;;;5083747;28;20024;-75
2021/05/04 10:17:35;;;;;;;3.50;2.05;;;20.40;34.60;;;;;;5085983;28;20066;-80
2021/05/04 10:20:10;;;;;;;6.78;2.00;;;19.90;35.60;;;;;;5084889;28;20031;-81
2021/05/04 10:22:37;;;;;;;4.03;2.38;;;19.20;36.70;;;;;;5090098;28;20023;-79
2021/05/04 10:25:17;;;;;;;4.32;2.30;;;18.60;37.50;;;;;;5082766;28;20049;-79
2021/05/04 10:27:44;;;;;;;5.07;2.20;;;18.10;38.60;;;;;;5082225;28;20063;-79
2021/05/04 10:30:11;;;;;;;3.88;2.20;;;17.90;40.00;;;;;;5088228;28;20496;-80
2021/05/04 10:32:52;;;;;;;4.22;2.15;;;18.10;39.10;;;;;;5091366;28;20024;-80
2021/05/04 10:35:32;;;;;;;3.90;2.10;;;18.20;39.40;;;;;;5092916;28;20068;-80
2021/05/04 10:38:03;;;;;;;6.57;1.85;;;18.70;38.90;;;;;;5080236;28;20016;-79
2021/05/04 10:40:31;;;;;;;3.33;1.70;;;19.50;38.40;;;;;;5090455;28;20054;-79
2021/05/04 10:43:02;;;;;;;2.42;1.60;;;20.10;36.70;;;;;;5091612;28;20021;-79
2021/05/04 10:45:42;;;;;;;4.35;1.80;;;20.40;36.50;;;;;;5077207;28;20057;-79
2021/05/04 10:48:09;;;;;;;2.50;1.75;;;21.10;36.00;;;;;;5092842;28;20020;-79
2021/05/04 10:50:51;;;;;;;7.70;2.00;;;21.60;35.10;;;;;;5092321;28;20335;-79
2021/05/04 10:53:17;;;;;;;3.03;1.77;;;21.30;35.40;;;;;;5091984;28;20021;-80
2021/05/04 10:55:52;;;;;;;4.45;1.65;;;21.10;34.50;;;;;;5077000;28;20349;-80
2021/05/04 10:58:25;;;;;;;4.68;1.67;;;20.80;34.10;;;;;;5080703;28;20028;-81
2021/05/04 11:00:54;;;;;;;3.70;1.80;;;20.30;34.50;;;;;;5090358;28;20029;-80
2021/05/04 11:03:32;;;;;;;2.70;1.75;;;19.80;35.20;;;;;;5091356;28;20028;-80
2021/05/04 11:06:31;;;;;;;3.83;2.00;;;19.40;36.00;;;;;;5077166;28;20020;-80
2021/05/04 11:08:57;;;;;;;6.40;2.20;;;19.00;36.30;;;;;;5076346;28;20048;-80
2021/05/04 11:11:41;;;;;;;4.28;1.90;;;19.00;36.70;;;;;;5084987;28;20148;-80
2021/05/04 11:14:08;;;;;;;4.97;2.20;;;18.80;37.00;;;;;;5090841;28;20048;-80
2021/05/04 11:16:37;;;;;;;3.55;1.90;;;18.50;36.80;;;;;;5094696;28;20020;-79
2021/05/04 11:19:05;;;;;;;4.43;2.22;;;18.30;36.90;;;;;;5096289;28;20017;-80
2021/05/04 11:21:40;;;;;;;7.70;2.20;;;18.00;37.20;;;;;;5088753;28;20052;-80
2021/05/04 11:24:09;;;;;;;5.15;2.40;;;17.60;38.00;;;;;;5089074;28;20050;-80
2021/05/04 11:26:51;;;;;;;4.15;2.13;;;17.30;38.50;;;;;;5078527;28;20024;-80
2021/05/04 11:29:22;;;;;;;3.95;2.10;;;17.00;39.30;;;;;;5086187;28;20033;-80
2021/05/04 11:31:52;;;;;;;5.00;2.45;;;16.80;39.60;;;;;;5080718;28;20017;-80
2021/05/04 11:34:37;;;;;;;3.53;2.10;;;16.60;40.00;;;;;;5085445;28;20463;-79
2021/05/04 11:37:06;;;;;;;3.85;2.40;;;16.80;40.30;;;;;;5093475;28;20016;-79
2021/05/04 11:39:32;;;;;;;5.43;2.40;;;17.00;40.20;;;;;;5092874;28;20458;-79
2021/05/04 11:42:00;;;;;;;4.72;2.40;;;17.20;40.00;;;;;;5095932;28;20020;-79
2021/05/04 11:44:27;;;;;;;2.83;2.00;;;17.50;40.30;;;;;;5085611;28;20020;-78
2021/05/04 11:46:56;;;;;;;4.25;2.10;;;17.70;39.80;;;;;;5088697;28;20028;-79
2021/05/04 11:49:26;;;;;;;4.22;1.77;;;17.70;39.30;;;;;;5095669;28;20118;-80
2021/05/04 11:52:09;;;;;;;4.25;1.92;;;17.70;38.90;;;;;;5080659;28;20020;-81
2021/05/04 11:54:36;;;;;;;3.33;1.90;;;17.60;38.40;;;;;;5098907;28;20024;-81
2021/05/04 11:57:03;;;;;;;4.05;1.70;;;17.70;38.40;;;;;;5093968;28;20016;-80
2021/05/04 11:59:29;;;;;;;3.60;1.80;;;17.60;38.30;;;;;;5093877;28;20024;-80
2021/05/04 12:01:55;;;;;;;4.35;1.77;;;17.60;38.30;;;;;;5081756;28;20025;-81
2021/05/04 12:04:59;;;;;;;3.83;1.63;;;17.80;38.10;;;;;;5087921;28;20054;-80
2021/05/04 12:07:51;;;;;;;2.45;1.70;;;17.90;37.30;;;;;;5089461;28;20107;-79
2021/05/04 12:10:17;;;;;;;4.03;1.60;;;17.90;37.20;;;;;;5091686;28;20048;-80
2021/05/04 12:12:54;;;;;;;5.15;1.70;;;17.80;37.20;;;;;;5079019;28;20206;-80
2021/05/04 12:15:25;;;;;;;2.10;1.48;;;17.70;37.50;;;;;;5088504;28;20027;-79
2021/05/04 12:18:18;;;;;;;3.15;1.80;;;17.50;37.60;;;;;;5083127;28;20020;-81
2021/05/04 12:20:48;;;;;;;5.68;2.08;;;17.40;37.90;;;;;;5073492;28;20036;-80
2021/05/04 12:23:34;;;;;;;7.07;2.28;;;17.20;38.80;;;;;;5089740;28;20023;-80
2021/05/04 12:26:09;;;;;;;3.70;2.33;;;16.80;40.20;;;;;;5092540;28;20024;-80
2021/05/04 12:28:38;;;;;;;;;;;16.70;41.10;;;;;;5077462;28;20028;-79
2021/05/04 12:31:09;;;;;;;3.90;1.80;;;16.70;40.90;;;;;;5084049;28;19914;-80
2021/05/04 12:33:37;;;;;;;3.92;2.00;;;16.60;41.10;;;;;;5091127;28;20494;-80
2021/05/04 12:36:17;;;;;;;3.80;2.20;;;16.50;41.20;;;;;;5083814;28;20016;-80
2021/05/04 12:38:54;;;;;;;3.53;2.10;;;16.30;41.10;;;;;;5085948;28;20088;-80
2021/05/04 12:41:22;;;;;;;3.20;2.00;;;16.30;41.50;;;;;;5074039;28;20036;-81
2021/05/04 12:46:46;;;;;;;4.32;2.00;;;16.30;42.10;;;;;;5086776;28;20031;-80
2021/05/04 12:49:13;;;;;;;2.78;1.90;;;16.40;41.80;;;;;;5079500;28;20028;-80
2021/05/04 12:51:44;;;;;;;4.72;2.00;;;16.40;41.60;;;;;;5080854;28;20021;-80
2021/05/04 12:54:14;;;;;;;4.28;1.98;;;16.50;41.60;;;;;;5086101;28;20048;-80
2021/05/04 12:56:40;;;;;;;3.47;1.80;;;16.60;41.00;;;;;;5085058;28;20410;-79
2021/05/04 12:59:06;;;;;;;4.30;1.90;;;16.50;40.80;;;;;;5079542;28;20047;-80
2021/05/04 13:01:43;;;;;;;5.68;1.80;;;16.50;40.80;;;;;;5083453;28;20024;-80
2021/05/04 13:04:16;;;;;;;4.45;1.90;;;16.50;40.80;;;;;;5088460;28;20056;-79
2021/05/04 13:06:56;;;;;;;7.50;1.80;;;16.50;40.70;;;;;;5092249;28;20020;-82